sensor_id;sensor_type;location;lat;lon;timestamp;P1;durP1;ratioP1;P2;durP2;ratioP2
75320;SDS011;68337;52.196;5.660;2023-08-12T00:00:29;6.07;;;4.90;;
75320;SDS011;68337;52.196;5.660;2023-08-12T00:02:55;7.05;;;5.35;;
75320;SDS011;68337;52.196;5.660;2023-08-12T00:05:21;6.10;;;5.40;;
75320;SDS011;68337;52.196;5.660;2023-08-12T00:07:47;6.95;;;4.90;;
75320;SDS011;68337;52.196;5.660;2023-08-12T00:10:13;8.85;;;5.38;;
75320;SDS011;68337;52.196;5.660;2023-08-12T00:12:39;7.00;;;5.45;;
75320;SDS011;68337;52.196;5.660;2023-08-12T00:15:06;5.85;;;5.22;;
75320;SDS011;68337;52.196;5.660;2023-08-12T00:17:33;6.38;;;4.97;;
75320;SDS011;68337;52.196;5.660;2023-08-12T00:20:01;8.38;;;5.07;;
75320;SDS011;68337;52.196;5.660;2023-08-12T00:22:30;7.07;;;4.95;;
75320;SDS011;68337;52.196;5.660;2023-08-12T00:24:56;7.82;;;5.32;;
75320;SDS011;68337;52.196;5.660;2023-08-12T00:27:22;7.90;;;4.97;;
75320;SDS011;68337;52.196;5.660;2023-08-12T00:29:48;6.30;;;5.13;;
75320;SDS011;68337;52.196;5.660;2023-08-12T00:32:14;8.13;;;5.35;;
75320;SDS011;68337;52.196;5.660;2023-08-12T00:34:39;5.80;;;5.07;;
75320;SDS011;68337;52.196;5.660;2023-08-12T00:37:05;7.28;;;4.43;;
75320;SDS011;68337;52.196;5.660;2023-08-12T00:39:31;5.90;;;4.90;;
75320;SDS011;68337;52.196;5.660;2023-08-12T00:41:56;6.15;;;5.43;;
75320;SDS011;68337;52.196;5.660;2023-08-12T00:44:22;10.50;;;5.78;;
75320;SDS011;68337;52.196;5.660;2023-08-12T00:46:48;5.68;;;5.15;;
75320;SDS011;68337;52.196;5.660;2023-08-12T00:49:14;8.70;;;5.25;;
75320;SDS011;68337;52.196;5.660;2023-08-12T00:51:41;7.80;;;5.10;;
75320;SDS011;68337;52.196;5.660;2023-08-12T00:54:08;8.95;;;5.82;;
75320;SDS011;68337;52.196;5.660;2023-08-12T00:56:39;6.57;;;5.28;;
75320;SDS011;68337;52.196;5.660;2023-08-12T00:59:05;8.85;;;5.13;;
75320;SDS011;68337;52.196;5.660;2023-08-12T01:01:33;7.03;;;5.00;;
75320;SDS011;68337;52.196;5.660;2023-08-12T01:03:58;8.90;;;6.20;;
75320;SDS011;68337;52.196;5.660;2023-08-12T01:06:24;7.03;;;5.63;;
75320;SDS011;68337;52.196;5.660;2023-08-12T01:08:50;8.43;;;6.15;;
75320;SDS011;68337;52.196;5.660;2023-08-12T01:11:20;7.97;;;5.70;;
75320;SDS011;68337;52.196;5.660;2023-08-12T01:16:36;8.52;;;5.85;;
75320;SDS011;68337;52.196;5.660;2023-08-12T01:19:08;10.95;;;5.60;;
75320;SDS011;68337;52.196;5.660;2023-08-12T01:21:36;6.05;;;5.35;;
75320;SDS011;68337;52.196;5.660;2023-08-12T01:24:08;8.02;;;5.53;;
75320;SDS011;68337;52.196;5.660;2023-08-12T01:26:34;8.38;;;6.00;;
75320;SDS011;68337;52.196;5.660;2023-08-12T01:29:00;5.63;;;5.05;;
75320;SDS011;68337;52.196;5.660;2023-08-12T01:31:38;7.45;;;5.63;;
75320;SDS011;68337;52.196;5.660;2023-08-12T01:34:29;8.85;;;6.35;;
75320;SDS011;68337;52.196;5.660;2023-08-12T01:37:05;9.23;;;5.93;;
75320;SDS011;68337;52.196;5.660;2023-08-12T01:39:35;8.95;;;6.05;;
75320;SDS011;68337;52.196;5.660;2023-08-12T01:42:01;8.07;;;5.25;;
75320;SDS011;68337;52.196;5.660;2023-08-12T01:44:28;6.03;;;4.93;;
75320;SDS011;68337;52.196;5.660;2023-08-12T01:46:53;8.30;;;5.85;;
75320;SDS011;68337;52.196;5.660;2023-08-12T01:49:20;6.85;;;5.47;;
75320;SDS011;68337;52.196;5.660;2023-08-12T01:51:48;8.23;;;6.05;;
75320;SDS011;68337;52.196;5.660;2023-08-12T01:54:13;10.48;;;6.25;;
75320;SDS011;68337;52.196;5.660;2023-08-12T01:56:39;9.50;;;6.72;;
75320;SDS011;68337;52.196;5.660;2023-08-12T01:59:05;15.30;;;7.22;;
75320;SDS011;68337;52.196;5.660;2023-08-12T02:01:30;13.35;;;7.00;;
75320;SDS011;68337;52.196;5.660;2023-08-12T02:03:56;8.25;;;6.30;;
75320;SDS011;68337;52.196;5.660;2023-08-12T02:06:22;11.18;;;6.63;;
75320;SDS011;68337;52.196;5.660;2023-08-12T02:08:47;8.40;;;6.50;;
75320;SDS011;68337;52.196;5.660;2023-08-12T02:11:13;9.90;;;7.47;;
75320;SDS011;68337;52.196;5.660;2023-08-12T02:13:39;7.63;;;6.82;;
75320;SDS011;68337;52.196;5.660;2023-08-12T02:16:04;9.43;;;6.65;;
75320;SDS011;68337;52.196;5.660;2023-08-12T02:18:30;9.40;;;6.80;;
75320;SDS011;68337;52.196;5.660;2023-08-12T02:20:55;9.50;;;6.70;;
75320;SDS011;68337;52.196;5.660;2023-08-12T02:23:21;10.55;;;7.70;;
75320;SDS011;68337;52.196;5.660;2023-08-12T02:25:47;9.13;;;6.82;;
75320;SDS011;68337;52.196;5.660;2023-08-12T02:28:12;10.85;;;6.78;;
75320;SDS011;68337;52.196;5.660;2023-08-12T02:30:38;8.77;;;5.82;;
75320;SDS011;68337;52.196;5.660;2023-08-12T02:33:04;7.55;;;6.05;;
75320;SDS011;68337;52.196;5.660;2023-08-12T02:35:29;12.73;;;6.78;;
75320;SDS011;68337;52.196;5.660;2023-08-12T02:37:55;10.77;;;6.82;;
75320;SDS011;68337;52.196;5.660;2023-08-12T02:40:21;8.93;;;6.53;;
75320;SDS011;68337;52.196;5.660;2023-08-12T02:42:46;11.50;;;6.70;;
75320;SDS011;68337;52.196;5.660;2023-08-12T02:45:12;11.65;;;6.78;;
75320;SDS011;68337;52.196;5.660;2023-08-12T02:47:38;10.95;;;7.07;;
75320;SDS011;68337;52.196;5.660;2023-08-12T02:50:03;11.05;;;8.02;;
75320;SDS011;68337;52.196;5.660;2023-08-12T02:52:29;9.60;;;7.57;;
75320;SDS011;68337;52.196;5.660;2023-08-12T02:54:55;11.93;;;7.95;;
75320;SDS011;68337;52.196;5.660;2023-08-12T02:57:21;9.95;;;8.50;;
75320;SDS011;68337;52.196;5.660;2023-08-12T02:59:47;13.13;;;8.65;;
75320;SDS011;68337;52.196;5.660;2023-08-12T03:02:12;13.35;;;9.38;;
75320;SDS011;68337;52.196;5.660;2023-08-12T03:04:38;13.55;;;9.35;;
75320;SDS011;68337;52.196;5.660;2023-08-12T03:07:04;18.05;;;12.85;;
75320;SDS011;68337;52.196;5.660;2023-08-12T03:09:29;16.90;;;11.38;;
75320;SDS011;68337;52.196;5.660;2023-08-12T03:11:55;17.48;;;11.77;;
75320;SDS011;68337;52.196;5.660;2023-08-12T03:14:21;23.23;;;13.75;;
75320;SDS011;68337;52.196;5.660;2023-08-12T03:16:47;20.45;;;14.75;;
75320;SDS011;68337;52.196;5.660;2023-08-12T03:19:12;22.85;;;14.43;;
75320;SDS011;68337;52.196;5.660;2023-08-12T03:21:38;19.65;;;14.77;;
75320;SDS011;68337;52.196;5.660;2023-08-12T03:24:04;19.48;;;14.05;;
75320;SDS011;68337;52.196;5.660;2023-08-12T03:26:30;17.30;;;13.13;;
75320;SDS011;68337;52.196;5.660;2023-08-12T03:28:55;22.85;;;14.63;;
75320;SDS011;68337;52.196;5.660;2023-08-12T03:31:21;23.92;;;15.98;;
75320;SDS011;68337;52.196;5.660;2023-08-12T03:33:47;18.95;;;14.30;;
75320;SDS011;68337;52.196;5.660;2023-08-12T03:36:12;18.73;;;14.93;;
75320;SDS011;68337;52.196;5.660;2023-08-12T03:38:38;20.02;;;15.20;;
75320;SDS011;68337;52.196;5.660;2023-08-12T03:41:04;17.85;;;13.40;;
75320;SDS011;68337;52.196;5.660;2023-08-12T03:43:29;19.42;;;14.93;;
75320;SDS011;68337;52.196;5.660;2023-08-12T03:45:55;20.85;;;14.00;;
75320;SDS011;68337;52.196;5.660;2023-08-12T03:48:21;21.88;;;14.43;;
75320;SDS011;68337;52.196;5.660;2023-08-12T03:50:47;22.35;;;13.85;;
75320;SDS011;68337;52.196;5.660;2023-08-12T03:53:13;22.30;;;13.70;;
75320;SDS011;68337;52.196;5.660;2023-08-12T03:55:38;23.70;;;14.15;;
75320;SDS011;68337;52.196;5.660;2023-08-12T03:58:04;21.13;;;14.88;;
75320;SDS011;68337;52.196;5.660;2023-08-12T04:00:30;19.65;;;14.32;;
75320;SDS011;68337;52.196;5.660;2023-08-12T04:02:56;24.48;;;16.08;;
75320;SDS011;68337;52.196;5.660;2023-08-12T04:05:21;22.80;;;15.32;;
75320;SDS011;68337;52.196;5.660;2023-08-12T04:07:47;21.30;;;16.98;;
75320;SDS011;68337;52.196;5.660;2023-08-12T04:10:13;17.15;;;14.00;;
75320;SDS011;68337;52.196;5.660;2023-08-12T04:12:39;18.40;;;14.45;;
75320;SDS011;68337;52.196;5.660;2023-08-12T04:15:07;22.88;;;15.23;;
75320;SDS011;68337;52.196;5.660;2023-08-12T04:17:33;20.92;;;15.90;;
75320;SDS011;68337;52.196;5.660;2023-08-12T04:19:58;23.52;;;16.23;;
75320;SDS011;68337;52.196;5.660;2023-08-12T04:22:24;25.50;;;17.58;;
75320;SDS011;68337;52.196;5.660;2023-08-12T04:24:51;26.48;;;16.20;;
75320;SDS011;68337;52.196;5.660;2023-08-12T04:27:17;20.70;;;17.83;;
75320;SDS011;68337;52.196;5.660;2023-08-12T04:29:42;21.20;;;15.65;;
75320;SDS011;68337;52.196;5.660;2023-08-12T04:32:10;22.98;;;16.60;;
75320;SDS011;68337;52.196;5.660;2023-08-12T04:34:36;20.80;;;16.90;;
75320;SDS011;68337;52.196;5.660;2023-08-12T04:37:02;23.88;;;18.05;;
75320;SDS011;68337;52.196;5.660;2023-08-12T04:39:28;24.45;;;16.88;;
75320;SDS011;68337;52.196;5.660;2023-08-12T04:41:53;23.35;;;18.77;;
75320;SDS011;68337;52.196;5.660;2023-08-12T04:44:19;28.80;;;18.90;;
75320;SDS011;68337;52.196;5.660;2023-08-12T04:46:45;22.00;;;16.90;;
75320;SDS011;68337;52.196;5.660;2023-08-12T04:49:11;26.30;;;18.23;;
75320;SDS011;68337;52.196;5.660;2023-08-12T04:51:37;23.02;;;18.77;;
75320;SDS011;68337;52.196;5.660;2023-08-12T04:54:03;24.50;;;17.23;;
75320;SDS011;68337;52.196;5.660;2023-08-12T04:56:29;28.23;;;19.70;;
75320;SDS011;68337;52.196;5.660;2023-08-12T04:58:55;25.80;;;18.60;;
75320;SDS011;68337;52.196;5.660;2023-08-12T05:01:21;29.10;;;20.60;;
75320;SDS011;68337;52.196;5.660;2023-08-12T05:03:46;26.75;;;19.75;;
75320;SDS011;68337;52.196;5.660;2023-08-12T05:06:12;26.70;;;19.10;;
75320;SDS011;68337;52.196;5.660;2023-08-12T05:08:38;29.40;;;22.27;;
75320;SDS011;68337;52.196;5.660;2023-08-12T05:11:03;25.83;;;19.13;;
75320;SDS011;68337;52.196;5.660;2023-08-12T05:13:29;27.13;;;18.48;;
75320;SDS011;68337;52.196;5.660;2023-08-12T05:15:55;25.65;;;17.95;;
75320;SDS011;68337;52.196;5.660;2023-08-12T05:18:21;28.33;;;19.90;;
75320;SDS011;68337;52.196;5.660;2023-08-12T05:20:51;24.98;;;18.08;;
75320;SDS011;68337;52.196;5.660;2023-08-12T05:23:18;33.80;;;21.13;;
75320;SDS011;68337;52.196;5.660;2023-08-12T05:25:45;24.40;;;18.27;;
75320;SDS011;68337;52.196;5.660;2023-08-12T05:28:11;20.45;;;15.75;;
75320;SDS011;68337;52.196;5.660;2023-08-12T05:30:36;25.20;;;16.88;;
75320;SDS011;68337;52.196;5.660;2023-08-12T05:33:03;22.13;;;16.42;;
75320;SDS011;68337;52.196;5.660;2023-08-12T05:35:33;27.65;;;19.48;;
75320;SDS011;68337;52.196;5.660;2023-08-12T05:37:59;21.65;;;17.08;;
75320;SDS011;68337;52.196;5.660;2023-08-12T05:40:26;21.33;;;15.43;;
75320;SDS011;68337;52.196;5.660;2023-08-12T05:42:52;26.00;;;19.13;;
75320;SDS011;68337;52.196;5.660;2023-08-12T05:45:18;22.02;;;16.63;;
75320;SDS011;68337;52.196;5.660;2023-08-12T05:47:43;22.10;;;17.40;;
75320;SDS011;68337;52.196;5.660;2023-08-12T05:50:09;27.20;;;18.98;;
75320;SDS011;68337;52.196;5.660;2023-08-12T05:52:35;25.73;;;17.52;;
75320;SDS011;68337;52.196;5.660;2023-08-12T05:55:00;22.95;;;17.17;;
75320;SDS011;68337;52.196;5.660;2023-08-12T05:57:26;19.67;;;16.27;;
75320;SDS011;68337;52.196;5.660;2023-08-12T05:59:52;25.70;;;17.45;;
75320;SDS011;68337;52.196;5.660;2023-08-12T06:02:18;24.67;;;18.98;;
75320;SDS011;68337;52.196;5.660;2023-08-12T06:04:44;26.58;;;18.15;;
75320;SDS011;68337;52.196;5.660;2023-08-12T06:07:09;28.48;;;17.35;;
75320;SDS011;68337;52.196;5.660;2023-08-12T06:09:35;25.77;;;17.42;;
75320;SDS011;68337;52.196;5.660;2023-08-12T06:12:01;20.50;;;15.77;;
75320;SDS011;68337;52.196;5.660;2023-08-12T06:14:26;20.73;;;16.02;;
75320;SDS011;68337;52.196;5.660;2023-08-12T06:16:53;26.75;;;16.20;;
75320;SDS011;68337;52.196;5.660;2023-08-12T06:19:18;23.50;;;16.65;;
75320;SDS011;68337;52.196;5.660;2023-08-12T06:21:44;25.95;;;16.52;;
75320;SDS011;68337;52.196;5.660;2023-08-12T06:24:10;24.98;;;17.52;;
75320;SDS011;68337;52.196;5.660;2023-08-12T06:26:36;20.45;;;15.25;;
75320;SDS011;68337;52.196;5.660;2023-08-12T06:29:01;22.13;;;16.58;;
75320;SDS011;68337;52.196;5.660;2023-08-12T06:31:27;21.80;;;15.75;;
75320;SDS011;68337;52.196;5.660;2023-08-12T06:33:53;21.98;;;14.85;;
75320;SDS011;68337;52.196;5.660;2023-08-12T06:36:18;19.08;;;13.18;;
75320;SDS011;68337;52.196;5.660;2023-08-12T06:38:44;16.75;;;12.15;;
75320;SDS011;68337;52.196;5.660;2023-08-12T06:41:10;13.95;;;10.35;;
75320;SDS011;68337;52.196;5.660;2023-08-12T06:43:35;11.45;;;9.23;;
75320;SDS011;68337;52.196;5.660;2023-08-12T06:46:01;9.13;;;7.60;;
75320;SDS011;68337;52.196;5.660;2023-08-12T06:48:27;7.22;;;6.25;;
75320;SDS011;68337;52.196;5.660;2023-08-12T06:50:53;9.48;;;6.95;;
75320;SDS011;68337;52.196;5.660;2023-08-12T06:53:20;6.70;;;6.10;;
75320;SDS011;68337;52.196;5.660;2023-08-12T06:55:46;10.20;;;6.65;;
75320;SDS011;68337;52.196;5.660;2023-08-12T06:58:12;7.25;;;6.20;;
75320;SDS011;68337;52.196;5.660;2023-08-12T07:00:38;6.75;;;5.40;;
75320;SDS011;68337;52.196;5.660;2023-08-12T07:03:05;6.43;;;5.80;;
75320;SDS011;68337;52.196;5.660;2023-08-12T07:05:30;10.57;;;6.85;;
75320;SDS011;68337;52.196;5.660;2023-08-12T07:07:56;8.00;;;6.93;;
75320;SDS011;68337;52.196;5.660;2023-08-12T07:10:22;10.15;;;6.78;;
75320;SDS011;68337;52.196;5.660;2023-08-12T07:12:47;8.85;;;7.75;;
75320;SDS011;68337;52.196;5.660;2023-08-12T07:15:13;12.18;;;9.88;;
75320;SDS011;68337;52.196;5.660;2023-08-12T07:17:39;10.90;;;9.15;;
75320;SDS011;68337;52.196;5.660;2023-08-12T07:20:05;10.38;;;8.13;;
75320;SDS011;68337;52.196;5.660;2023-08-12T07:22:31;12.32;;;8.95;;
75320;SDS011;68337;52.196;5.660;2023-08-12T07:24:57;10.57;;;8.60;;
75320;SDS011;68337;52.196;5.660;2023-08-12T07:27:25;7.75;;;7.05;;
75320;SDS011;68337;52.196;5.660;2023-08-12T07:29:51;8.35;;;7.53;;
75320;SDS011;68337;52.196;5.660;2023-08-12T07:32:17;8.50;;;7.78;;
75320;SDS011;68337;52.196;5.660;2023-08-12T07:34:44;12.00;;;10.75;;
75320;SDS011;68337;52.196;5.660;2023-08-12T07:37:10;9.68;;;8.68;;
75320;SDS011;68337;52.196;5.660;2023-08-12T07:39:36;12.05;;;10.65;;
75320;SDS011;68337;52.196;5.660;2023-08-12T07:42:02;10.60;;;9.35;;
75320;SDS011;68337;52.196;5.660;2023-08-12T07:44:28;9.45;;;8.23;;
75320;SDS011;68337;52.196;5.660;2023-08-12T07:46:54;9.20;;;8.30;;
75320;SDS011;68337;52.196;5.660;2023-08-12T07:49:21;7.75;;;6.97;;
75320;SDS011;68337;52.196;5.660;2023-08-12T07:51:47;8.10;;;7.30;;
75320;SDS011;68337;52.196;5.660;2023-08-12T07:54:13;9.20;;;8.40;;
75320;SDS011;68337;52.196;5.660;2023-08-12T07:56:38;8.85;;;7.15;;
75320;SDS011;68337;52.196;5.660;2023-08-12T07:59:04;8.25;;;7.07;;
75320;SDS011;68337;52.196;5.660;2023-08-12T08:01:30;7.82;;;7.18;;
75320;SDS011;68337;52.196;5.660;2023-08-12T08:03:55;7.55;;;6.78;;
75320;SDS011;68337;52.196;5.660;2023-08-12T08:06:22;9.90;;;7.55;;
75320;SDS011;68337;52.196;5.660;2023-08-12T08:08:48;7.70;;;6.85;;
75320;SDS011;68337;52.196;5.660;2023-08-12T08:11:14;6.50;;;5.90;;
75320;SDS011;68337;52.196;5.660;2023-08-12T08:13:40;5.45;;;4.95;;
75320;SDS011;68337;52.196;5.660;2023-08-12T08:16:06;4.95;;;4.45;;
75320;SDS011;68337;52.196;5.660;2023-08-12T08:18:31;4.93;;;4.53;;
75320;SDS011;68337;52.196;5.660;2023-08-12T08:20:57;4.88;;;4.32;;
75320;SDS011;68337;52.196;5.660;2023-08-12T08:23:23;4.53;;;4.00;;
75320;SDS011;68337;52.196;5.660;2023-08-12T08:25:49;5.13;;;4.10;;
75320;SDS011;68337;52.196;5.660;2023-08-12T08:28:14;5.18;;;3.80;;
75320;SDS011;68337;52.196;5.660;2023-08-12T08:30:40;3.95;;;3.65;;
75320;SDS011;68337;52.196;5.660;2023-08-12T08:33:06;3.97;;;3.67;;
75320;SDS011;68337;52.196;5.660;2023-08-12T08:35:31;3.80;;;3.50;;
75320;SDS011;68337;52.196;5.660;2023-08-12T08:37:57;3.75;;;3.45;;
75320;SDS011;68337;52.196;5.660;2023-08-12T08:40:23;3.83;;;3.53;;
75320;SDS011;68337;52.196;5.660;2023-08-12T08:42:51;3.90;;;3.60;;
75320;SDS011;68337;52.196;5.660;2023-08-12T08:45:21;3.97;;;3.67;;
75320;SDS011;68337;52.196;5.660;2023-08-12T08:47:48;3.33;;;2.92;;
75320;SDS011;68337;52.196;5.660;2023-08-12T08:50:16;2.95;;;2.75;;
75320;SDS011;68337;52.196;5.660;2023-08-12T08:52:42;3.53;;;3.15;;
75320;SDS011;68337;52.196;5.660;2023-08-12T08:55:08;2.90;;;2.70;;
75320;SDS011;68337;52.196;5.660;2023-08-12T08:57:35;4.20;;;2.70;;
75320;SDS011;68337;52.196;5.660;2023-08-12T09:00:02;2.85;;;2.70;;
75320;SDS011;68337;52.196;5.660;2023-08-12T09:02:32;3.17;;;2.88;;
75320;SDS011;68337;52.196;5.660;2023-08-12T09:04:58;2.40;;;2.20;;
75320;SDS011;68337;52.196;5.660;2023-08-12T09:07:25;2.60;;;2.40;;
75320;SDS011;68337;52.196;5.660;2023-08-12T09:09:51;2.55;;;2.00;;
75320;SDS011;68337;52.196;5.660;2023-08-12T09:12:19;2.03;;;1.92;;
75320;SDS011;68337;52.196;5.660;2023-08-12T09:14:46;2.38;;;2.28;;
75320;SDS011;68337;52.196;5.660;2023-08-12T09:17:12;2.50;;;2.40;;
75320;SDS011;68337;52.196;5.660;2023-08-12T09:19:37;3.40;;;2.42;;
75320;SDS011;68337;52.196;5.660;2023-08-12T09:22:03;3.58;;;2.75;;
75320;SDS011;68337;52.196;5.660;2023-08-12T09:24:30;2.70;;;2.50;;
75320;SDS011;68337;52.196;5.660;2023-08-12T09:26:56;2.60;;;2.40;;
75320;SDS011;68337;52.196;5.660;2023-08-12T09:29:31;3.55;;;2.15;;
75320;SDS011;68337;52.196;5.660;2023-08-12T09:32:18;2.40;;;2.20;;
75320;SDS011;68337;52.196;5.660;2023-08-12T09:34:47;1.38;;;1.27;;
75320;SDS011;68337;52.196;5.660;2023-08-12T09:37:22;0.82;;;0.82;;
75320;SDS011;68337;52.196;5.660;2023-08-12T09:39:50;1.60;;;1.20;;
75320;SDS011;68337;52.196;5.660;2023-08-12T09:42:16;1.77;;;1.10;;
75320;SDS011;68337;52.196;5.660;2023-08-12T09:44:43;2.85;;;1.33;;
75320;SDS011;68337;52.196;5.660;2023-08-12T09:47:09;3.72;;;1.60;;
75320;SDS011;68337;52.196;5.660;2023-08-12T09:49:35;4.10;;;1.55;;
75320;SDS011;68337;52.196;5.660;2023-08-12T09:52:06;2.05;;;1.67;;
75320;SDS011;68337;52.196;5.660;2023-08-12T09:54:33;2.38;;;1.75;;
75320;SDS011;68337;52.196;5.660;2023-08-12T09:57:00;3.35;;;2.00;;
75320;SDS011;68337;52.196;5.660;2023-08-12T09:59:33;2.85;;;1.92;;
75320;SDS011;68337;52.196;5.660;2023-08-12T10:02:00;3.03;;;1.90;;
75320;SDS011;68337;52.196;5.660;2023-08-12T10:04:39;3.88;;;1.67;;
75320;SDS011;68337;52.196;5.660;2023-08-12T10:07:10;1.85;;;1.73;;
75320;SDS011;68337;52.196;5.660;2023-08-12T10:09:37;2.00;;;1.80;;
75320;SDS011;68337;52.196;5.660;2023-08-12T10:12:05;3.08;;;1.75;;
75320;SDS011;68337;52.196;5.660;2023-08-12T10:14:32;6.28;;;2.10;;
75320;SDS011;68337;52.196;5.660;2023-08-12T10:16:58;3.88;;;1.98;;
75320;SDS011;68337;52.196;5.660;2023-08-12T10:19:25;5.38;;;1.90;;
75320;SDS011;68337;52.196;5.660;2023-08-12T10:21:54;7.63;;;2.40;;
75320;SDS011;68337;52.196;5.660;2023-08-12T10:24:22;5.47;;;2.47;;
75320;SDS011;68337;52.196;5.660;2023-08-12T10:26:49;4.97;;;2.25;;
75320;SDS011;68337;52.196;5.660;2023-08-12T10:29:17;6.82;;;2.20;;
75320;SDS011;68337;52.196;5.660;2023-08-12T10:31:43;5.07;;;2.30;;
75320;SDS011;68337;52.196;5.660;2023-08-12T10:34:20;5.55;;;2.13;;
75320;SDS011;68337;52.196;5.660;2023-08-12T10:36:47;4.32;;;2.38;;
75320;SDS011;68337;52.196;5.660;2023-08-12T10:39:13;4.43;;;2.05;;
75320;SDS011;68337;52.196;5.660;2023-08-12T10:41:39;6.10;;;2.42;;
75320;SDS011;68337;52.196;5.660;2023-08-12T10:44:17;5.53;;;2.08;;
75320;SDS011;68337;52.196;5.660;2023-08-12T10:46:50;6.88;;;2.58;;
75320;SDS011;68337;52.196;5.660;2023-08-12T10:49:18;5.43;;;2.47;;
75320;SDS011;68337;52.196;5.660;2023-08-12T10:51:49;7.68;;;2.70;;
75320;SDS011;68337;52.196;5.660;2023-08-12T10:57:04;5.03;;;2.47;;
75320;SDS011;68337;52.196;5.660;2023-08-12T11:07:31;5.72;;;2.00;;
75320;SDS011;68337;52.196;5.660;2023-08-12T11:09:59;2.88;;;1.63;;
75320;SDS011;68337;52.196;5.660;2023-08-12T11:12:33;3.65;;;1.90;;
75320;SDS011;68337;52.196;5.660;2023-08-12T11:15:00;2.05;;;1.45;;
75320;SDS011;68337;52.196;5.660;2023-08-12T11:17:29;5.80;;;1.80;;
75320;SDS011;68337;52.196;5.660;2023-08-12T11:19:59;6.00;;;1.60;;
75320;SDS011;68337;52.196;5.660;2023-08-12T11:22:25;6.70;;;2.00;;
75320;SDS011;68337;52.196;5.660;2023-08-12T11:24:51;5.10;;;1.58;;
75320;SDS011;68337;52.196;5.660;2023-08-12T11:27:17;4.55;;;1.35;;
75320;SDS011;68337;52.196;5.660;2023-08-12T11:29:43;6.35;;;2.35;;
75320;SDS011;68337;52.196;5.660;2023-08-12T11:32:09;4.63;;;1.85;;
75320;SDS011;68337;52.196;5.660;2023-08-12T11:34:35;5.15;;;1.88;;
75320;SDS011;68337;52.196;5.660;2023-08-12T11:37:02;9.02;;;1.90;;
75320;SDS011;68337;52.196;5.660;2023-08-12T11:39:28;5.40;;;1.85;;
75320;SDS011;68337;52.196;5.660;2023-08-12T11:41:55;3.63;;;1.45;;
75320;SDS011;68337;52.196;5.660;2023-08-12T11:44:21;7.63;;;1.90;;
75320;SDS011;68337;52.196;5.660;2023-08-12T11:46:47;3.67;;;1.35;;
75320;SDS011;68337;52.196;5.660;2023-08-12T11:49:14;4.65;;;1.63;;
75320;SDS011;68337;52.196;5.660;2023-08-12T11:51:39;7.18;;;1.90;;
75320;SDS011;68337;52.196;5.660;2023-08-12T11:54:07;6.15;;;1.63;;
75320;SDS011;68337;52.196;5.660;2023-08-12T11:56:33;4.95;;;1.77;;
75320;SDS011;68337;52.196;5.660;2023-08-12T11:58:59;4.97;;;1.58;;
75320;SDS011;68337;52.196;5.660;2023-08-12T12:01:24;3.20;;;1.75;;
75320;SDS011;68337;52.196;5.660;2023-08-12T12:03:51;2.85;;;1.30;;
75320;SDS011;68337;52.196;5.660;2023-08-12T12:06:17;4.53;;;2.08;;
75320;SDS011;68337;52.196;5.660;2023-08-12T12:08:45;5.07;;;1.80;;
75320;SDS011;68337;52.196;5.660;2023-08-12T12:11:13;4.47;;;1.58;;
75320;SDS011;68337;52.196;5.660;2023-08-12T12:13:39;5.57;;;2.00;;
75320;SDS011;68337;52.196;5.660;2023-08-12T12:16:09;3.67;;;1.80;;
75320;SDS011;68337;52.196;5.660;2023-08-12T12:18:36;8.20;;;1.83;;
75320;SDS011;68337;52.196;5.660;2023-08-12T12:21:01;7.20;;;1.55;;
75320;SDS011;68337;52.196;5.660;2023-08-12T12:23:28;5.43;;;1.70;;
75320;SDS011;68337;52.196;5.660;2023-08-12T12:25:58;3.38;;;1.38;;
75320;SDS011;68337;52.196;5.660;2023-08-12T12:28:27;5.03;;;1.65;;
75320;SDS011;68337;52.196;5.660;2023-08-12T12:30:54;7.15;;;2.00;;
75320;SDS011;68337;52.196;5.660;2023-08-12T12:33:20;4.55;;;1.60;;
75320;SDS011;68337;52.196;5.660;2023-08-12T12:35:46;6.05;;;1.98;;
75320;SDS011;68337;52.196;5.660;2023-08-12T12:38:11;5.85;;;1.70;;
75320;SDS011;68337;52.196;5.660;2023-08-12T12:40:37;6.03;;;1.73;;
75320;SDS011;68337;52.196;5.660;2023-08-12T12:43:05;4.40;;;1.85;;
75320;SDS011;68337;52.196;5.660;2023-08-12T12:45:31;5.35;;;1.80;;
75320;SDS011;68337;52.196;5.660;2023-08-12T12:47:57;4.63;;;2.00;;
75320;SDS011;68337;52.196;5.660;2023-08-12T12:50:22;5.28;;;1.70;;
75320;SDS011;68337;52.196;5.660;2023-08-12T12:52:48;6.82;;;1.35;;
75320;SDS011;68337;52.196;5.660;2023-08-12T12:55:13;9.00;;;1.55;;
75320;SDS011;68337;52.196;5.660;2023-08-12T12:57:39;4.78;;;1.02;;
75320;SDS011;68337;52.196;5.660;2023-08-12T13:00:05;3.75;;;1.02;;
75320;SDS011;68337;52.196;5.660;2023-08-12T13:02:34;6.28;;;1.38;;
75320;SDS011;68337;52.196;5.660;2023-08-12T13:05:00;5.13;;;1.35;;
75320;SDS011;68337;52.196;5.660;2023-08-12T13:07:25;5.75;;;1.58;;
75320;SDS011;68337;52.196;5.660;2023-08-12T13:09:51;4.80;;;1.50;;
75320;SDS011;68337;52.196;5.660;2023-08-12T13:12:17;6.95;;;1.70;;
75320;SDS011;68337;52.196;5.660;2023-08-12T13:14:42;4.60;;;1.30;;
75320;SDS011;68337;52.196;5.660;2023-08-12T13:17:08;4.32;;;1.40;;
75320;SDS011;68337;52.196;5.660;2023-08-12T13:19:34;6.43;;;1.70;;
75320;SDS011;68337;52.196;5.660;2023-08-12T13:21:59;6.32;;;1.83;;
75320;SDS011;68337;52.196;5.660;2023-08-12T13:24:27;2.58;;;1.27;;
75320;SDS011;68337;52.196;5.660;2023-08-12T13:26:52;6.53;;;1.65;;
75320;SDS011;68337;52.196;5.660;2023-08-12T13:29:19;10.27;;;1.60;;
75320;SDS011;68337;52.196;5.660;2023-08-12T13:31:45;4.50;;;1.60;;
75320;SDS011;68337;52.196;5.660;2023-08-12T13:34:11;5.72;;;1.80;;
75320;SDS011;68337;52.196;5.660;2023-08-12T13:36:37;6.10;;;1.80;;
75320;SDS011;68337;52.196;5.660;2023-08-12T13:39:02;7.65;;;1.58;;
75320;SDS011;68337;52.196;5.660;2023-08-12T13:41:28;6.90;;;1.50;;
75320;SDS011;68337;52.196;5.660;2023-08-12T13:43:54;9.10;;;2.22;;
75320;SDS011;68337;52.196;5.660;2023-08-12T13:46:19;5.57;;;1.58;;
75320;SDS011;68337;52.196;5.660;2023-08-12T13:48:45;8.27;;;1.83;;
75320;SDS011;68337;52.196;5.660;2023-08-12T13:51:11;4.72;;;1.77;;
75320;SDS011;68337;52.196;5.660;2023-08-12T13:53:36;7.10;;;1.85;;
75320;SDS011;68337;52.196;5.660;2023-08-12T13:56:02;6.32;;;1.70;;
75320;SDS011;68337;52.196;5.660;2023-08-12T13:58:28;8.30;;;1.63;;
75320;SDS011;68337;52.196;5.660;2023-08-12T14:00:54;7.68;;;1.65;;
75320;SDS011;68337;52.196;5.660;2023-08-12T14:03:20;6.28;;;1.77;;
75320;SDS011;68337;52.196;5.660;2023-08-12T14:05:45;4.28;;;1.80;;
75320;SDS011;68337;52.196;5.660;2023-08-12T14:08:11;6.43;;;1.88;;
75320;SDS011;68337;52.196;5.660;2023-08-12T14:10:37;6.95;;;2.13;;
75320;SDS011;68337;52.196;5.660;2023-08-12T14:13:02;8.65;;;1.83;;
75320;SDS011;68337;52.196;5.660;2023-08-12T14:15:28;12.68;;;2.58;;
75320;SDS011;68337;52.196;5.660;2023-08-12T14:17:54;7.50;;;1.92;;
75320;SDS011;68337;52.196;5.660;2023-08-12T14:20:20;6.57;;;1.73;;
75320;SDS011;68337;52.196;5.660;2023-08-12T14:22:45;8.45;;;2.45;;
75320;SDS011;68337;52.196;5.660;2023-08-12T14:25:11;5.03;;;2.00;;
75320;SDS011;68337;52.196;5.660;2023-08-12T14:27:36;5.57;;;1.85;;
75320;SDS011;68337;52.196;5.660;2023-08-12T14:30:03;5.07;;;1.88;;
75320;SDS011;68337;52.196;5.660;2023-08-12T14:32:29;7.50;;;2.00;;
75320;SDS011;68337;52.196;5.660;2023-08-12T14:34:55;12.43;;;2.47;;
75320;SDS011;68337;52.196;5.660;2023-08-12T14:37:20;6.47;;;1.50;;
75320;SDS011;68337;52.196;5.660;2023-08-12T14:39:46;8.25;;;1.70;;
75320;SDS011;68337;52.196;5.660;2023-08-12T14:42:12;5.63;;;2.05;;
75320;SDS011;68337;52.196;5.660;2023-08-12T14:44:38;6.55;;;2.08;;
75320;SDS011;68337;52.196;5.660;2023-08-12T14:47:03;4.70;;;1.60;;
75320;SDS011;68337;52.196;5.660;2023-08-12T14:49:29;6.07;;;1.92;;